createdAt,value
2022-10-19T00:01:14.515Z,12.90
2022-10-19T00:03:43.312Z,12.80
2022-10-19T00:06:12.543Z,12.80
2022-10-19T00:08:39.599Z,12.80
2022-10-19T00:11:06.724Z,12.80
2022-10-19T00:13:34.008Z,12.80
2022-10-19T00:16:01.121Z,12.80
2022-10-19T00:18:28.182Z,12.70
2022-10-19T00:21:04.035Z,12.70
2022-10-19T00:23:31.019Z,12.70
2022-10-19T00:25:58.630Z,12.70
2022-10-19T00:28:25.719Z,12.70
2022-10-19T00:30:52.888Z,12.70
2022-10-19T00:33:22.467Z,12.70
2022-10-19T00:35:50.812Z,12.70
2022-10-19T00:38:19.811Z,12.60
2022-10-19T00:40:47.097Z,12.60
2022-10-19T00:43:26.354Z,12.60
2022-10-19T00:45:53.642Z,12.60
2022-10-19T00:48:27.316Z,12.60
2022-10-19T00:50:57.961Z,12.60
2022-10-19T00:53:28.068Z,12.50
2022-10-19T00:55:56.157Z,12.50
2022-10-19T00:58:23.046Z,12.50
2022-10-19T01:00:50.001Z,12.50
2022-10-19T01:03:16.953Z,12.50
2022-10-19T01:05:43.862Z,12.50
2022-10-19T01:08:12.411Z,12.50
2022-10-19T01:11:06.384Z,12.40
2022-10-19T01:13:55.715Z,12.40
2022-10-19T01:16:51.051Z,12.40
2022-10-19T01:19:42.100Z,12.40
2022-10-19T01:22:11.670Z,12.30
2022-10-19T01:25:17.512Z,12.30
2022-10-19T01:27:57.960Z,12.40
2022-10-19T01:31:19.865Z,12.30
2022-10-19T01:34:00.538Z,12.30
2022-10-19T01:36:39.421Z,12.30
2022-10-19T01:39:18.085Z,12.20
2022-10-19T01:41:51.331Z,12.30
2022-10-19T01:44:31.483Z,12.20
2022-10-19T01:47:06.812Z,12.20
2022-10-19T01:49:44.837Z,12.20
2022-10-19T01:52:15.407Z,12.20
2022-10-19T01:54:49.412Z,12.20
2022-10-19T01:57:25.719Z,12.20
2022-10-19T01:59:54.588Z,12.20
2022-10-19T02:02:25.919Z,12.20
2022-10-19T02:04:57.024Z,12.20
2022-10-19T02:07:25.525Z,12.20
2022-10-19T02:09:52.427Z,12.20
2022-10-19T02:12:21.088Z,12.20
2022-10-19T02:14:52.198Z,12.20
2022-10-19T02:17:26.847Z,12.10
2022-10-19T02:19:54.758Z,12.10
2022-10-19T02:22:22.141Z,12.10
2022-10-19T02:24:49.079Z,12.10
2022-10-19T02:27:16.406Z,12.10
2022-10-19T02:29:43.401Z,12.10
2022-10-19T02:32:11.356Z,12.00
2022-10-19T02:34:39.346Z,12.10
2022-10-19T02:37:06.927Z,12.00
2022-10-19T02:39:34.156Z,12.00
2022-10-19T02:42:16.776Z,12.00
2022-10-19T02:44:56.420Z,12.00
2022-10-19T02:47:33.473Z,11.90
2022-10-19T02:50:01.224Z,11.90
2022-10-19T02:52:28.177Z,11.90
2022-10-19T02:54:55.060Z,11.90
2022-10-19T02:57:24.783Z,11.90
2022-10-19T02:59:52.448Z,11.90
2022-10-19T03:02:20.403Z,11.90
2022-10-19T03:07:17.375Z,11.90
2022-10-19T03:09:44.769Z,11.90
2022-10-19T03:12:13.182Z,11.90
2022-10-19T03:14:40.181Z,11.90
2022-10-19T03:17:07.307Z,11.90
2022-10-19T03:19:35.334Z,11.90
2022-10-19T03:22:02.565Z,11.90
2022-10-19T03:24:31.635Z,11.90
2022-10-19T03:27:01.259Z,11.90
2022-10-19T03:29:28.678Z,11.80
2022-10-19T03:31:55.667Z,11.80
2022-10-19T03:34:22.657Z,11.90
2022-10-19T03:36:49.574Z,11.80
2022-10-19T03:39:17.652Z,11.80
2022-10-19T03:41:44.634Z,11.90
2022-10-19T03:44:12.387Z,11.80
2022-10-19T03:46:40.285Z,11.80
2022-10-19T03:49:07.431Z,11.80
2022-10-19T03:51:34.707Z,11.80
2022-10-19T03:54:05.651Z,11.80
2022-10-19T03:56:35.349Z,11.80
2022-10-19T03:59:03.915Z,11.80
2022-10-19T04:01:34.343Z,11.70
2022-10-19T04:04:04.103Z,11.70
2022-10-19T04:06:36.761Z,11.70
2022-10-19T04:09:05.404Z,11.70
2022-10-19T04:11:33.575Z,11.60
2022-10-19T04:14:01.905Z,11.60
2022-10-19T04:16:29.997Z,11.60
2022-10-19T04:18:57.296Z,11.60
2022-10-19T04:21:27.063Z,11.60
2022-10-19T04:24:00.450Z,11.60
2022-10-19T04:26:27.554Z,11.60
2022-10-19T04:28:56.594Z,11.60
2022-10-19T04:31:23.557Z,11.60
2022-10-19T04:33:50.453Z,11.60
2022-10-19T04:36:18.486Z,11.50
2022-10-19T04:38:45.404Z,11.50
2022-10-19T04:41:14.779Z,11.50
2022-10-19T04:43:41.679Z,11.50
2022-10-19T04:46:11.354Z,11.50
2022-10-19T04:48:39.736Z,11.40
2022-10-19T04:51:07.536Z,11.40
2022-10-19T04:53:35.294Z,11.40
2022-10-19T04:56:06.029Z,11.40
2022-10-19T04:58:33.090Z,11.40
2022-10-19T05:01:00.062Z,11.40
2022-10-19T05:03:26.925Z,11.30
2022-10-19T05:05:53.796Z,11.30
2022-10-19T05:08:20.689Z,11.30
2022-10-19T05:10:47.828Z,11.30
2022-10-19T05:13:15.072Z,11.30
2022-10-19T05:15:43.110Z,11.30
2022-10-19T05:18:10.171Z,11.20
2022-10-19T05:20:37.021Z,11.20
2022-10-19T05:23:06.390Z,11.20
2022-10-19T05:25:34.280Z,11.20
2022-10-19T05:28:01.152Z,11.20
2022-10-19T05:30:28.074Z,11.20
2022-10-19T05:32:54.991Z,11.20
2022-10-19T05:35:22.661Z,11.20
2022-10-19T05:37:54.202Z,11.20
2022-10-19T05:40:21.204Z,11.20
2022-10-19T05:42:48.089Z,11.20
2022-10-19T05:45:15.074Z,11.10
2022-10-19T05:47:41.927Z,11.10
2022-10-19T05:50:08.999Z,11.10
2022-10-19T05:52:35.953Z,11.10
2022-10-19T05:55:02.818Z,11.10
2022-10-19T05:57:33.393Z,11.10
2022-10-19T06:00:00.545Z,11.10
2022-10-19T06:02:27.394Z,11.10
2022-10-19T06:04:54.239Z,11.10
2022-10-19T06:07:21.393Z,11.10
2022-10-19T06:09:48.415Z,11.10
2022-10-19T06:12:24.225Z,11.10
2022-10-19T06:14:52.110Z,11.10
2022-10-19T06:17:19.049Z,11.10
2022-10-19T06:19:45.920Z,11.10
2022-10-19T06:22:12.851Z,11.10
2022-10-19T06:24:39.696Z,11.10
2022-10-19T06:27:07.071Z,11.10
2022-10-19T06:29:34.033Z,11.10
2022-10-19T06:32:00.942Z,11.10
2022-10-19T06:34:27.946Z,11.20
2022-10-19T06:36:55.107Z,11.30
2022-10-19T06:39:21.993Z,11.50
2022-10-19T06:41:48.893Z,11.80
2022-10-19T06:44:15.784Z,12.10
2022-10-19T06:46:42.636Z,12.50
2022-10-19T06:49:13.338Z,13.00
2022-10-19T06:51:40.821Z,13.60
2022-10-19T06:54:08.096Z,14.30
2022-10-19T06:56:35.181Z,15.00
2022-10-19T06:59:02.142Z,15.80
2022-10-19T07:01:29.086Z,16.20
2022-10-19T07:03:56.058Z,16.50
2022-10-19T07:06:23.594Z,16.90
2022-10-19T07:08:50.479Z,17.50
2022-10-19T07:11:19.905Z,18.20
2022-10-19T07:13:46.909Z,19.10
2022-10-19T07:16:19.560Z,19.80
2022-10-19T07:18:52.991Z,20.10
2022-10-19T07:21:21.941Z,20.10
2022-10-19T07:23:49.135Z,20.00
2022-10-19T07:26:26.726Z,19.60
2022-10-19T07:28:56.047Z,19.50
2022-10-19T07:31:24.780Z,19.30
2022-10-19T07:33:59.679Z,19.50
2022-10-19T07:36:29.086Z,19.70
2022-10-19T07:38:56.132Z,19.90
2022-10-19T07:41:25.871Z,20.00
2022-10-19T07:43:54.129Z,20.00
2022-10-19T07:46:23.788Z,19.70
2022-10-19T07:48:50.719Z,19.60
2022-10-19T07:51:18.719Z,19.60
2022-10-19T07:53:46.713Z,19.60
2022-10-19T07:56:19.262Z,19.40
2022-10-19T07:58:46.579Z,19.00
2022-10-19T08:01:22.614Z,18.70
2022-10-19T08:06:38.804Z,18.20
2022-10-19T08:09:06.454Z,18.20
2022-10-19T08:11:35.617Z,18.50
2022-10-19T08:14:03.353Z,18.70
2022-10-19T08:16:33.155Z,18.90
2022-10-19T08:19:04.188Z,19.30
2022-10-19T08:21:31.480Z,19.90
2022-10-19T08:23:59.040Z,20.80
2022-10-19T08:26:29.189Z,21.60
2022-10-19T08:29:00.864Z,22.50
2022-10-19T08:31:28.161Z,23.10
2022-10-19T08:33:55.044Z,23.50
2022-10-19T08:36:22.343Z,23.70
2022-10-19T08:38:50.060Z,23.90
2022-10-19T08:41:55.718Z,23.90
2022-10-19T08:44:34.635Z,24.00
2022-10-19T08:47:23.617Z,24.60
2022-10-19T08:49:51.189Z,24.70
2022-10-19T08:52:34.693Z,24.70
2022-10-19T08:55:13.095Z,25.10
2022-10-19T08:58:00.081Z,25.50
2022-10-19T09:01:01.019Z,25.90
2022-10-19T09:03:56.339Z,26.30
2022-10-19T09:06:29.478Z,26.60
2022-10-19T09:08:58.461Z,27.00
2022-10-19T09:11:29.667Z,26.80
2022-10-19T09:14:07.090Z,26.70
2022-10-19T09:16:35.244Z,26.50
2022-10-19T09:19:04.121Z,26.30
2022-10-19T09:22:06.419Z,26.20
2022-10-19T09:24:46.547Z,26.10
2022-10-19T09:27:24.452Z,26.50
2022-10-19T09:29:59.304Z,26.60
2022-10-19T09:32:33.145Z,26.90
2022-10-19T09:35:07.416Z,26.90
2022-10-19T09:37:41.823Z,27.00
2022-10-19T09:40:18.285Z,27.30
2022-10-19T09:42:45.265Z,27.10
2022-10-19T09:45:23.412Z,26.90
2022-10-19T09:47:50.817Z,27.00
2022-10-19T09:50:23.529Z,27.10
2022-10-19T09:53:02.925Z,27.10
2022-10-19T09:55:44.057Z,27.30
2022-10-19T09:58:14.296Z,27.00
2022-10-19T10:00:55.655Z,26.70
2022-10-19T10:03:39.476Z,26.30
2022-10-19T10:06:09.678Z,26.40
2022-10-19T10:08:39.584Z,26.40
2022-10-19T10:11:23.733Z,26.00
2022-10-19T10:13:53.047Z,25.30
2022-10-19T10:16:22.488Z,24.90
2022-10-19T10:18:58.378Z,24.80
2022-10-19T10:21:34.860Z,24.70
2022-10-19T10:24:29.264Z,24.60
2022-10-19T10:27:01.530Z,24.70
2022-10-19T10:29:29.905Z,24.90
2022-10-19T10:32:09.044Z,25.00
2022-10-19T10:34:51.969Z,24.80
2022-10-19T10:37:26.086Z,24.80
2022-10-19T10:39:56.732Z,24.70
2022-10-19T10:42:35.220Z,24.60
2022-10-19T10:45:02.934Z,24.20
2022-10-19T10:47:31.275Z,23.80
2022-10-19T10:50:02.850Z,23.10
2022-10-19T10:52:31.615Z,22.80
2022-10-19T10:55:10.760Z,22.70
2022-10-19T10:57:44.952Z,22.70
2022-10-19T11:00:15.552Z,22.40
2022-10-19T11:03:08.209Z,22.10
2022-10-19T11:05:40.142Z,21.70
2022-10-19T11:08:20.233Z,21.20
2022-10-19T11:10:54.115Z,20.90
2022-10-19T11:13:33.000Z,20.50
2022-10-19T11:16:19.284Z,20.20
2022-10-19T11:18:51.865Z,19.90
2022-10-19T11:21:18.687Z,19.70
2022-10-19T11:24:08.629Z,19.60
2022-10-19T11:27:09.329Z,19.60
2022-10-19T11:29:45.132Z,19.50
2022-10-19T11:32:26.042Z,19.50
2022-10-19T11:35:03.597Z,19.60
2022-10-19T11:38:19.767Z,19.80
2022-10-19T11:41:19.548Z,19.90
2022-10-19T11:44:05.275Z,20.10
2022-10-19T11:46:34.942Z,20.10
2022-10-19T11:49:18.695Z,20.00
2022-10-19T11:51:57.738Z,20.00
2022-10-19T11:55:05.772Z,19.90
2022-10-19T11:57:52.500Z,19.80
2022-10-19T12:00:38.244Z,19.70
2022-10-19T12:03:32.980Z,19.60
2022-10-19T12:06:23.808Z,19.60
2022-10-19T12:08:52.530Z,19.60
2022-10-19T12:11:43.825Z,19.70
2022-10-19T12:14:17.291Z,19.80
2022-10-19T12:16:49.958Z,20.00
2022-10-19T12:19:48.087Z,20.10
2022-10-19T12:22:23.886Z,20.10
2022-10-19T12:24:53.344Z,20.20
2022-10-19T12:27:29.699Z,20.20
2022-10-19T12:30:02.864Z,20.10
2022-10-19T12:32:35.792Z,20.00
2022-10-19T12:35:43.236Z,20.10
2022-10-19T12:38:16.139Z,19.90
2022-10-19T12:40:59.390Z,19.80
2022-10-19T12:43:38.923Z,19.70
2022-10-19T12:46:24.549Z,19.80
2022-10-19T12:49:26.371Z,19.90
2022-10-19T12:51:55.355Z,20.00
2022-10-19T12:54:28.137Z,20.00
2022-10-19T12:56:57.602Z,19.90
2022-10-19T12:59:29.102Z,19.90
2022-10-19T13:01:57.167Z,19.70
2022-10-19T13:04:31.361Z,19.80
2022-10-19T13:06:58.277Z,19.80
2022-10-19T13:09:35.273Z,19.90
2022-10-19T13:12:21.618Z,20.00
2022-10-19T13:15:01.828Z,20.10
2022-10-19T13:17:35.115Z,20.10
2022-10-19T13:20:14.410Z,20.00
2022-10-19T13:22:49.801Z,20.10
2022-10-19T13:25:19.338Z,20.20
2022-10-19T13:27:51.883Z,20.20
2022-10-19T13:30:38.331Z,20.10
2022-10-19T13:33:29.796Z,20.00
2022-10-19T13:35:59.770Z,19.80
2022-10-19T13:38:27.744Z,19.70
2022-10-19T13:41:09.775Z,19.50
2022-10-19T13:43:55.678Z,19.50
2022-10-19T13:46:29.995Z,19.50
2022-10-19T13:49:16.041Z,19.40
2022-10-19T13:51:52.184Z,19.30
2022-10-19T13:54:49.299Z,19.00
2022-10-19T13:57:35.121Z,19.00
2022-10-19T14:00:25.169Z,18.90
2022-10-19T14:03:48.801Z,18.90
2022-10-19T14:06:33.109Z,18.80
2022-10-19T14:09:20.226Z,18.70
2022-10-19T14:11:51.628Z,18.50
2022-10-19T14:14:24.289Z,18.40
2022-10-19T14:16:59.666Z,18.20
2022-10-19T14:19:31.765Z,18.10
2022-10-19T14:22:01.288Z,18.00
2022-10-19T14:24:36.237Z,17.90
2022-10-19T14:27:07.912Z,17.80
2022-10-19T14:29:48.332Z,17.60
2022-10-19T14:32:18.865Z,17.60
2022-10-19T14:34:48.339Z,17.50
2022-10-19T14:37:21.635Z,17.50
2022-10-19T14:40:24.787Z,17.40
2022-10-19T14:42:54.971Z,17.30
2022-10-19T14:45:30.761Z,17.20
2022-10-19T14:48:02.188Z,17.10
2022-10-19T14:50:42.030Z,17.00
2022-10-19T14:53:37.315Z,16.90
2022-10-19T14:56:16.105Z,16.90
2022-10-19T14:58:52.933Z,16.90
2022-10-19T15:01:20.643Z,16.90
2022-10-19T15:03:49.014Z,16.80
2022-10-19T15:06:21.679Z,16.90
2022-10-19T15:08:55.383Z,16.80
2022-10-19T15:11:29.953Z,16.80
2022-10-19T15:14:02.051Z,16.80
2022-10-19T15:16:49.213Z,16.80
2022-10-19T15:19:29.984Z,16.80
2022-10-19T15:22:15.129Z,16.80
2022-10-19T15:25:01.010Z,16.70
2022-10-19T15:27:39.929Z,16.60
2022-10-19T15:30:19.255Z,16.60
2022-10-19T15:32:54.749Z,16.60
2022-10-19T15:35:32.412Z,16.50
2022-10-19T15:38:24.211Z,16.50
2022-10-19T15:40:57.039Z,16.40
2022-10-19T15:43:24.954Z,16.40
2022-10-19T15:46:04.178Z,16.40
2022-10-19T15:48:52.368Z,16.30
2022-10-19T15:51:25.046Z,16.30
2022-10-19T15:53:57.658Z,16.30
2022-10-19T15:56:28.260Z,16.40
2022-10-19T15:58:57.805Z,16.40
2022-10-19T16:01:27.429Z,16.40
2022-10-19T16:03:55.022Z,16.50
2022-10-19T16:06:26.001Z,16.50
2022-10-19T16:08:54.244Z,16.50
2022-10-19T16:11:23.188Z,16.50
2022-10-19T16:13:50.631Z,16.40
2022-10-19T16:16:26.582Z,16.30
2022-10-19T16:18:54.143Z,16.20
2022-10-19T16:21:24.756Z,16.10
2022-10-19T16:23:52.261Z,16.00
2022-10-19T16:26:19.468Z,16.00
2022-10-19T16:28:46.490Z,15.80
2022-10-19T16:31:13.570Z,15.80
2022-10-19T16:33:40.482Z,15.70
2022-10-19T16:36:08.782Z,15.60
2022-10-19T16:38:36.464Z,15.50
2022-10-19T16:41:06.279Z,15.50
2022-10-19T16:43:33.378Z,15.40
2022-10-19T16:46:00.425Z,15.40
2022-10-19T16:48:27.397Z,15.30
2022-10-19T16:51:17.062Z,15.30
2022-10-19T16:53:44.001Z,15.20
2022-10-19T16:56:12.756Z,15.20
2022-10-19T16:58:40.800Z,15.10
2022-10-19T17:01:13.801Z,15.10
2022-10-19T17:03:40.725Z,15.00
2022-10-19T17:06:08.688Z,15.00
2022-10-19T17:08:36.908Z,15.00
2022-10-19T17:11:21.698Z,15.00
2022-10-19T17:13:50.596Z,14.90
2022-10-19T17:16:19.468Z,14.90
2022-10-19T17:18:46.988Z,14.90
2022-10-19T17:21:20.610Z,14.80
2022-10-19T17:23:51.035Z,14.80
2022-10-19T17:26:17.901Z,14.70
2022-10-19T17:28:44.933Z,14.70
2022-10-19T17:31:13.911Z,14.70
2022-10-19T17:33:42.192Z,14.60
2022-10-19T17:36:15.347Z,14.60
2022-10-19T17:38:42.323Z,14.50
2022-10-19T17:41:14.951Z,14.50
2022-10-19T17:43:44.406Z,14.50
2022-10-19T17:46:13.827Z,14.40
2022-10-19T17:48:42.038Z,14.40
2022-10-19T17:51:16.142Z,14.40
2022-10-19T17:53:44.591Z,14.40
2022-10-19T17:56:13.976Z,14.30
2022-10-19T17:58:41.280Z,14.30
2022-10-19T18:01:10.669Z,14.30
2022-10-19T18:03:38.712Z,14.30
2022-10-19T18:06:10.806Z,14.20
2022-10-19T18:08:41.042Z,14.20
2022-10-19T18:11:21.799Z,14.20
2022-10-19T18:13:49.587Z,14.20
2022-10-19T18:16:20.715Z,14.20
2022-10-19T18:18:50.311Z,14.20
2022-10-19T18:21:20.511Z,14.10
2022-10-19T18:23:48.620Z,14.10
2022-10-19T18:26:19.727Z,14.10
2022-10-19T18:28:46.774Z,14.00
2022-10-19T18:31:22.352Z,14.00
2022-10-19T18:33:54.986Z,14.00
2022-10-19T18:36:21.973Z,14.00
2022-10-19T18:38:54.021Z,13.90
2022-10-19T18:41:21.557Z,13.90
2022-10-19T18:43:57.251Z,13.80
2022-10-19T18:46:25.651Z,13.80
2022-10-19T18:48:53.687Z,13.80
2022-10-19T18:51:22.768Z,13.80
2022-10-19T18:53:50.259Z,13.70
2022-10-19T18:56:19.114Z,13.70
2022-10-19T18:58:46.286Z,13.70
2022-10-19T19:01:26.701Z,13.60
2022-10-19T19:04:04.409Z,13.70
2022-10-19T19:06:32.861Z,13.60
2022-10-19T19:09:01.688Z,13.60
2022-10-19T19:11:33.049Z,13.60
2022-10-19T19:14:06.351Z,13.60
2022-10-19T19:16:35.880Z,13.60
2022-10-19T19:19:02.799Z,13.50
2022-10-19T19:21:30.917Z,13.50
2022-10-19T19:24:02.610Z,13.40
2022-10-19T19:26:35.503Z,13.40
2022-10-19T19:29:02.712Z,13.40
2022-10-19T19:31:30.148Z,13.40
2022-10-19T19:34:01.161Z,13.40
2022-10-19T19:36:28.124Z,13.40
2022-10-19T19:38:56.383Z,13.40
2022-10-19T19:41:23.343Z,13.30
2022-10-19T19:43:50.376Z,13.30
2022-10-19T19:46:19.457Z,13.30
2022-10-19T19:48:48.219Z,13.30
2022-10-19T19:51:20.682Z,13.30
2022-10-19T19:53:48.270Z,13.30
2022-10-19T19:56:16.707Z,13.30
2022-10-19T19:58:45.110Z,13.20
2022-10-19T20:01:14.823Z,13.20
2022-10-19T20:03:42.127Z,13.20
2022-10-19T20:06:09.905Z,13.20
2022-10-19T20:08:37.110Z,13.20
2022-10-19T20:11:09.212Z,13.20
2022-10-19T20:13:36.689Z,13.20
2022-10-19T20:16:12.742Z,13.20
2022-10-19T20:18:49.140Z,13.10
2022-10-19T20:21:17.963Z,13.10
2022-10-19T20:23:46.010Z,13.10
2022-10-19T20:26:17.408Z,13.10
2022-10-19T20:28:44.960Z,13.10
2022-10-19T20:31:12.384Z,13.10
2022-10-19T20:33:40.788Z,13.00
2022-10-19T20:36:13.267Z,13.00
2022-10-19T20:38:40.895Z,13.00
2022-10-19T20:41:09.442Z,13.00
2022-10-19T20:43:37.573Z,13.00
2022-10-19T20:46:21.205Z,12.90
2022-10-19T20:48:48.962Z,12.90
2022-10-19T20:51:39.088Z,12.90
2022-10-19T20:54:10.655Z,12.90
2022-10-19T20:56:40.679Z,12.80
2022-10-19T20:59:11.556Z,12.80
2022-10-19T21:01:40.027Z,12.80
2022-10-19T21:04:09.729Z,12.80
2022-10-19T21:06:45.420Z,12.80
2022-10-19T21:09:13.942Z,12.80
2022-10-19T21:11:42.861Z,12.80
2022-10-19T21:14:17.844Z,12.80
2022-10-19T21:16:45.995Z,12.80
2022-10-19T21:19:18.379Z,12.80
2022-10-19T21:21:48.892Z,12.80
2022-10-19T21:24:19.092Z,12.80
2022-10-19T21:26:46.353Z,12.70
2022-10-19T21:29:14.817Z,12.80
2022-10-19T21:31:49.125Z,12.80
2022-10-19T21:34:24.935Z,12.70
2022-10-19T21:36:52.689Z,12.70
2022-10-19T21:39:19.777Z,12.70
2022-10-19T21:41:47.109Z,12.70
2022-10-19T21:44:15.833Z,12.70
2022-10-19T21:46:43.699Z,12.70
2022-10-19T21:49:14.592Z,12.70
2022-10-19T21:51:46.872Z,12.70
2022-10-19T21:54:17.033Z,12.70
2022-10-19T21:56:44.739Z,12.70
2022-10-19T21:59:12.487Z,12.80
2022-10-19T22:01:41.175Z,12.80
2022-10-19T22:04:17.069Z,12.80
2022-10-19T22:06:44.347Z,12.80
2022-10-19T22:09:15.122Z,12.80
2022-10-19T22:11:42.120Z,12.80
2022-10-19T22:14:10.472Z,12.80
2022-10-19T22:16:37.403Z,12.80
2022-10-19T22:19:05.884Z,12.80
2022-10-19T22:21:34.706Z,12.80
2022-10-19T22:24:05.536Z,12.80
2022-10-19T22:26:37.471Z,12.80
2022-10-19T22:29:06.566Z,12.80
2022-10-19T22:31:34.295Z,12.80
2022-10-19T22:34:05.032Z,12.70
2022-10-19T22:36:31.979Z,12.70
2022-10-19T22:38:59.002Z,12.70
2022-10-19T22:42:22.319Z,12.70
2022-10-19T22:44:49.275Z,12.70
2022-10-19T22:47:16.233Z,12.70
2022-10-19T22:49:43.272Z,12.70
2022-10-19T22:52:10.244Z,12.70
2022-10-19T22:54:37.168Z,12.70
2022-10-19T22:57:05.335Z,12.70
2022-10-19T22:59:33.226Z,12.70
2022-10-19T23:02:00.312Z,12.70
2022-10-19T23:04:27.613Z,12.70
2022-10-19T23:06:55.278Z,12.70
2022-10-19T23:09:22.505Z,12.70
2022-10-19T23:11:49.682Z,12.70
2022-10-19T23:14:16.707Z,12.70
2022-10-19T23:16:43.593Z,12.70
2022-10-19T23:19:10.538Z,12.70
2022-10-19T23:21:37.447Z,12.60
2022-10-19T23:24:04.401Z,12.60
2022-10-19T23:26:31.802Z,12.60
2022-10-19T23:28:58.695Z,12.60
2022-10-19T23:31:30.231Z,12.60
2022-10-19T23:33:58.190Z,12.60
2022-10-19T23:36:27.779Z,12.60
2022-10-19T23:38:56.193Z,12.50
2022-10-19T23:41:23.882Z,12.50
2022-10-19T23:43:50.870Z,12.50
2022-10-19T23:46:17.810Z,12.50
2022-10-19T23:48:44.835Z,12.50
2022-10-19T23:51:20.575Z,12.50
2022-10-19T23:53:49.175Z,12.50
2022-10-19T23:56:28.409Z,12.40
2022-10-19T23:58:56.150Z,12.40
